createdAt,value
2022-10-30T00:00:40.691Z,91.40
2022-10-30T00:03:13.926Z,91.50
2022-10-30T00:05:45.290Z,91.60
2022-10-30T00:08:13.372Z,91.70
2022-10-30T00:10:40.663Z,91.80
2022-10-30T00:13:08.587Z,91.70
2022-10-30T00:15:35.671Z,92.40
2022-10-30T00:18:02.686Z,92.30
2022-10-30T00:20:29.620Z,91.90
2022-10-30T00:22:56.745Z,91.70
2022-10-30T00:25:23.708Z,91.60
2022-10-30T00:27:50.415Z,91.50
2022-10-30T00:30:18.879Z,91.40
2022-10-30T00:32:45.684Z,90.80
2022-10-30T00:35:12.558Z,90.50
2022-10-30T00:37:39.393Z,90.40
2022-10-30T00:40:06.953Z,90.40
2022-10-30T00:42:34.236Z,91.30
2022-10-30T00:45:01.092Z,91.50
2022-10-30T00:47:40.902Z,91.50
2022-10-30T00:50:19.019Z,91.30
2022-10-30T00:53:08.007Z,91.10
2022-10-30T00:55:56.350Z,91.20
2022-10-30T00:58:33.123Z,90.70
2022-10-30T01:01:03.284Z,90.80
2022-10-30T01:03:31.067Z,91.10
2022-10-30T01:06:02.970Z,91.50
2022-10-30T01:08:30.010Z,91.30
2022-10-30T01:10:58.486Z,91.80
2022-10-30T01:13:26.267Z,91.90
2022-10-30T01:16:31.913Z,92.60
2022-10-30T01:19:36.114Z,92.50
2022-10-30T01:22:18.075Z,92.50
2022-10-30T01:25:12.335Z,92.40
2022-10-30T01:27:44.589Z,92.20
2022-10-30T01:30:14.391Z,92.30
2022-10-30T01:32:41.091Z,92.40
2022-10-30T01:35:22.051Z,92.70
2022-10-30T01:37:52.539Z,92.50
2022-10-30T01:40:20.341Z,92.30
2022-10-30T01:42:55.991Z,92.30
2022-10-30T01:45:59.661Z,92.00
2022-10-30T01:48:38.280Z,92.10
2022-10-30T01:51:22.921Z,92.10
2022-10-30T01:54:09.222Z,92.10
2022-10-30T01:56:51.442Z,92.70
2022-10-30T01:59:37.025Z,92.40
2022-10-30T02:02:04.621Z,92.30
2022-10-30T02:04:32.187Z,91.80
2022-10-30T02:06:58.956Z,91.40
2022-10-30T02:09:26.283Z,91.00
2022-10-30T02:11:54.631Z,90.80
2022-10-30T02:14:32.503Z,90.70
2022-10-30T02:17:02.787Z,90.60
2022-10-30T02:19:29.589Z,91.40
2022-10-30T02:21:56.436Z,91.60
2022-10-30T02:24:23.225Z,91.40
2022-10-30T02:26:50.032Z,91.10
2022-10-30T02:29:20.703Z,91.10
2022-10-30T02:31:47.945Z,91.40
2022-10-30T02:34:15.293Z,91.40
2022-10-30T02:36:42.238Z,91.50
2022-10-30T02:39:09.197Z,92.00
2022-10-30T02:41:36.156Z,92.10
2022-10-30T02:44:03.348Z,91.90
2022-10-30T02:46:30.038Z,91.80
2022-10-30T02:48:56.912Z,92.10
2022-10-30T02:51:23.601Z,92.10
2022-10-30T02:53:50.454Z,92.30
2022-10-30T02:56:17.766Z,91.80
2022-10-30T02:58:44.449Z,91.40
2022-10-30T03:01:14.366Z,91.30
2022-10-30T03:03:41.602Z,91.00
2022-10-30T03:06:11.020Z,90.50
2022-10-30T03:08:38.055Z,90.30
2022-10-30T03:11:08.144Z,89.90
2022-10-30T03:13:35.735Z,88.70
2022-10-30T03:16:05.647Z,88.70
2022-10-30T03:18:33.151Z,87.80
2022-10-30T03:21:01.514Z,88.40
2022-10-30T03:23:29.346Z,89.20
2022-10-30T03:25:57.682Z,89.50
2022-10-30T03:28:26.413Z,89.30
2022-10-30T03:30:59.333Z,89.70
2022-10-30T03:33:26.065Z,90.00
2022-10-30T03:35:52.790Z,89.70
2022-10-30T03:38:19.516Z,90.00
2022-10-30T03:40:46.260Z,90.00
2022-10-30T03:43:13.104Z,90.00
2022-10-30T03:45:39.799Z,90.10
2022-10-30T03:48:06.958Z,90.10
2022-10-30T03:50:33.647Z,90.10
2022-10-30T03:53:00.442Z,89.30
2022-10-30T03:55:27.126Z,89.00
2022-10-30T03:57:53.818Z,88.50
2022-10-30T04:00:20.715Z,88.70
2022-10-30T04:02:49.330Z,88.30
2022-10-30T04:05:18.842Z,88.50
2022-10-30T04:07:46.075Z,88.50
2022-10-30T04:10:14.939Z,88.30
2022-10-30T04:12:43.430Z,87.10
2022-10-30T04:15:10.230Z,85.90
2022-10-30T04:17:36.924Z,85.60
2022-10-30T04:20:04.108Z,87.30
2022-10-30T04:22:30.844Z,87.90
2022-10-30T04:24:57.591Z,88.50
2022-10-30T04:27:24.422Z,89.00
2022-10-30T04:29:51.221Z,90.10
2022-10-30T04:32:17.943Z,90.70
2022-10-30T04:34:44.686Z,91.60
2022-10-30T04:37:11.429Z,91.50
2022-10-30T04:39:42.287Z,91.60
2022-10-30T04:42:12.235Z,91.60
2022-10-30T04:44:39.018Z,91.30
2022-10-30T04:47:05.686Z,90.80
2022-10-30T04:49:32.430Z,90.70
2022-10-30T04:51:59.342Z,90.50
2022-10-30T04:54:26.084Z,90.00
2022-10-30T04:56:52.893Z,89.30
2022-10-30T04:59:19.583Z,88.10
2022-10-30T05:01:46.447Z,87.80
2022-10-30T05:04:13.284Z,87.60
2022-10-30T05:06:39.994Z,86.90
2022-10-30T05:09:06.721Z,86.50
2022-10-30T05:11:33.389Z,86.00
2022-10-30T05:14:00.110Z,85.60
2022-10-30T05:16:26.797Z,84.80
2022-10-30T05:18:53.499Z,84.80
2022-10-30T05:21:20.295Z,84.50
2022-10-30T05:23:47.082Z,84.20
2022-10-30T05:26:13.825Z,84.50
2022-10-30T05:28:41.581Z,84.30
2022-10-30T05:31:08.415Z,85.10
2022-10-30T05:33:35.155Z,85.50
2022-10-30T05:36:01.897Z,85.00
2022-10-30T05:38:28.585Z,85.40
2022-10-30T05:40:55.290Z,85.70
2022-10-30T05:43:21.956Z,85.60
2022-10-30T05:45:51.777Z,85.50
2022-10-30T05:48:18.573Z,84.50
2022-10-30T05:50:45.369Z,83.60
2022-10-30T05:53:12.153Z,84.20
2022-10-30T05:55:38.890Z,84.30
2022-10-30T05:58:06.800Z,84.90
2022-10-30T06:00:35.815Z,85.30
2022-10-30T06:03:03.913Z,84.90
2022-10-30T06:05:33.242Z,84.80
2022-10-30T06:08:00.457Z,84.30
2022-10-30T06:10:27.956Z,83.60
2022-10-30T06:13:02.916Z,84.50
2022-10-30T06:15:30.656Z,84.40
2022-10-30T06:17:58.009Z,84.70
2022-10-30T06:20:28.026Z,85.10
2022-10-30T06:23:02.839Z,84.50
2022-10-30T06:25:36.298Z,84.80
2022-10-30T06:28:06.360Z,86.00
2022-10-30T06:30:33.611Z,86.00
2022-10-30T06:33:02.309Z,85.00
2022-10-30T06:35:29.763Z,83.80
2022-10-30T06:38:00.139Z,82.70
2022-10-30T06:40:27.685Z,81.70
2022-10-30T06:43:00.616Z,80.60
2022-10-30T06:45:27.672Z,79.60
2022-10-30T06:47:54.440Z,78.80
2022-10-30T06:50:22.431Z,77.50
2022-10-30T06:52:49.440Z,77.30
2022-10-30T06:55:16.588Z,76.20
2022-10-30T06:57:43.421Z,75.40
2022-10-30T07:00:10.855Z,75.60
2022-10-30T07:02:37.601Z,75.60
2022-10-30T07:05:04.897Z,75.90
2022-10-30T07:07:31.622Z,75.60
2022-10-30T07:09:58.320Z,75.40
2022-10-30T07:12:25.109Z,75.10
2022-10-30T07:14:51.908Z,75.50
2022-10-30T07:17:18.646Z,74.80
2022-10-30T07:19:45.388Z,72.60
2022-10-30T07:22:12.156Z,70.00
2022-10-30T07:24:38.976Z,68.20
2022-10-30T07:27:05.693Z,67.40
2022-10-30T07:29:32.405Z,67.50
2022-10-30T07:32:03.103Z,66.50
2022-10-30T07:34:30.860Z,66.30
2022-10-30T07:36:57.578Z,65.70
2022-10-30T07:39:24.314Z,64.20
2022-10-30T07:41:51.122Z,62.50
2022-10-30T07:44:18.323Z,62.10
2022-10-30T07:46:45.078Z,60.80
2022-10-30T07:49:11.824Z,59.30
2022-10-30T07:51:38.490Z,57.30
2022-10-30T07:54:05.271Z,56.50
2022-10-30T07:56:31.979Z,54.80
2022-10-30T07:58:58.776Z,54.20
2022-10-30T08:01:25.747Z,54.10
2022-10-30T08:03:52.793Z,53.60
2022-10-30T08:06:22.946Z,51.80
2022-10-30T08:08:53.267Z,52.00
2022-10-30T08:11:20.036Z,50.80
2022-10-30T08:13:47.053Z,51.00
2022-10-30T08:16:14.604Z,50.60
2022-10-30T08:18:42.652Z,50.80
2022-10-30T08:21:10.009Z,49.30
2022-10-30T08:23:37.167Z,48.50
2022-10-30T08:26:04.298Z,49.20
2022-10-30T08:28:32.894Z,49.70
2022-10-30T08:31:01.076Z,50.10
2022-10-30T08:33:28.347Z,49.60
2022-10-30T08:35:58.378Z,50.00
2022-10-30T08:38:26.548Z,49.50
2022-10-30T08:40:53.688Z,48.90
2022-10-30T08:43:20.763Z,46.20
2022-10-30T08:45:47.586Z,47.30
2022-10-30T08:48:16.202Z,47.30
2022-10-30T08:50:43.110Z,47.40
2022-10-30T08:53:14.391Z,46.20
2022-10-30T08:55:41.378Z,45.80
2022-10-30T08:58:08.094Z,45.20
2022-10-30T09:00:35.595Z,45.50
2022-10-30T09:03:02.842Z,45.30
2022-10-30T09:05:30.139Z,45.00
2022-10-30T09:07:59.112Z,45.10
2022-10-30T09:10:27.287Z,45.50
2022-10-30T09:12:58.498Z,45.80
2022-10-30T09:15:26.442Z,45.90
2022-10-30T09:17:58.651Z,46.00
2022-10-30T09:20:26.190Z,46.10
2022-10-30T09:22:52.917Z,45.10
2022-10-30T09:25:19.987Z,44.60
2022-10-30T09:27:46.982Z,43.10
2022-10-30T09:30:14.543Z,42.30
2022-10-30T09:32:41.471Z,42.40
2022-10-30T09:35:09.083Z,41.40
2022-10-30T09:37:39.427Z,41.50
2022-10-30T09:40:08.100Z,40.40
2022-10-30T09:42:46.581Z,41.00
2022-10-30T09:45:44.931Z,39.80
2022-10-30T09:48:25.084Z,39.10
2022-10-30T09:51:16.712Z,39.40
2022-10-30T09:54:05.999Z,36.00
2022-10-30T09:56:52.654Z,35.10
2022-10-30T10:00:03.978Z,34.80
2022-10-30T10:02:53.150Z,34.60
2022-10-30T10:05:29.236Z,32.60
2022-10-30T10:08:02.878Z,33.00
2022-10-30T10:10:44.018Z,33.70
2022-10-30T10:13:24.278Z,33.90
2022-10-30T10:15:56.966Z,32.90
2022-10-30T10:18:29.689Z,32.10
2022-10-30T10:21:01.383Z,32.00
2022-10-30T10:23:35.812Z,32.10
2022-10-30T10:26:14.390Z,30.40
2022-10-30T10:29:02.795Z,30.90
2022-10-30T10:31:58.043Z,30.50
2022-10-30T10:34:52.265Z,30.60
2022-10-30T10:37:44.060Z,30.60
2022-10-30T10:40:28.711Z,31.10
2022-10-30T10:43:16.998Z,31.80
2022-10-30T10:46:10.482Z,32.00
2022-10-30T10:48:55.437Z,32.70
2022-10-30T10:51:30.174Z,32.90
2022-10-30T10:54:02.302Z,32.90
2022-10-30T10:56:35.128Z,33.40
2022-10-30T10:59:08.911Z,34.00
2022-10-30T11:01:49.735Z,34.20
2022-10-30T11:04:40.175Z,34.60
2022-10-30T11:07:25.190Z,34.90
2022-10-30T11:09:54.044Z,35.20
2022-10-30T11:12:28.521Z,34.90
2022-10-30T11:15:01.779Z,35.50
2022-10-30T11:17:41.426Z,36.10
2022-10-30T11:20:36.064Z,36.20
2022-10-30T11:23:03.039Z,36.30
2022-10-30T11:25:38.789Z,36.00
2022-10-30T11:28:06.326Z,36.00
2022-10-30T11:30:33.176Z,36.00
2022-10-30T11:33:19.893Z,36.20
2022-10-30T11:35:46.592Z,36.30
2022-10-30T11:38:20.020Z,36.40
2022-10-30T11:40:52.712Z,36.20
2022-10-30T11:43:23.443Z,36.70
2022-10-30T11:45:51.099Z,37.10
2022-10-30T11:48:29.385Z,36.10
2022-10-30T11:51:01.227Z,36.90
2022-10-30T11:53:34.908Z,36.20
2022-10-30T11:56:04.136Z,35.70
2022-10-30T11:58:42.473Z,35.10
2022-10-30T12:01:27.959Z,34.90
2022-10-30T12:03:56.214Z,34.90
2022-10-30T12:06:22.889Z,33.90
2022-10-30T12:09:22.664Z,34.60
2022-10-30T12:11:50.010Z,35.00
2022-10-30T12:14:22.846Z,35.00
2022-10-30T12:16:52.189Z,35.30
2022-10-30T12:19:21.817Z,35.80
2022-10-30T12:21:54.499Z,36.20
2022-10-30T12:24:31.856Z,36.40
2022-10-30T12:27:03.203Z,36.30
2022-10-30T12:30:07.304Z,36.60
2022-10-30T12:32:50.008Z,36.40
2022-10-30T12:35:59.020Z,36.40
2022-10-30T12:38:34.976Z,35.40
2022-10-30T12:41:04.628Z,35.10
2022-10-30T12:43:36.067Z,35.00
2022-10-30T12:46:33.284Z,35.10
2022-10-30T12:49:29.260Z,34.50
2022-10-30T12:52:01.937Z,34.80
2022-10-30T12:54:36.297Z,34.70
2022-10-30T12:57:13.754Z,34.60
2022-10-30T13:00:01.712Z,35.00
2022-10-30T13:02:59.804Z,35.30
2022-10-30T13:05:39.681Z,34.80
2022-10-30T13:08:28.053Z,34.40
2022-10-30T13:11:08.589Z,33.30
2022-10-30T13:13:43.760Z,34.20
2022-10-30T13:16:18.825Z,34.30
2022-10-30T13:18:45.591Z,34.50
2022-10-30T13:21:26.975Z,34.20
2022-10-30T13:24:10.986Z,34.10
2022-10-30T13:26:58.461Z,33.70
2022-10-30T13:29:46.428Z,34.00
2022-10-30T13:32:31.699Z,33.60
2022-10-30T13:35:35.880Z,32.90
2022-10-30T13:38:14.901Z,33.50
2022-10-30T13:41:12.396Z,33.90
2022-10-30T13:43:53.784Z,34.30
2022-10-30T13:46:32.311Z,33.60
2022-10-30T13:49:18.455Z,33.70
2022-10-30T13:52:08.496Z,33.20
2022-10-30T13:54:44.334Z,33.40
2022-10-30T13:57:29.798Z,33.30
2022-10-30T13:59:59.934Z,34.10
2022-10-30T14:03:03.260Z,37.70
2022-10-30T14:05:48.323Z,39.20
2022-10-30T14:08:37.932Z,39.00
2022-10-30T14:11:12.253Z,39.40
2022-10-30T14:13:46.607Z,38.90
2022-10-30T14:16:42.233Z,38.80
2022-10-30T14:19:10.009Z,38.80
2022-10-30T14:21:44.131Z,39.30
2022-10-30T14:24:28.113Z,39.30
2022-10-30T14:27:07.096Z,39.60
2022-10-30T14:29:36.502Z,39.00
2022-10-30T14:32:23.465Z,39.00
2022-10-30T14:34:53.266Z,39.30
2022-10-30T14:37:27.011Z,39.80
2022-10-30T14:39:55.617Z,40.00
2022-10-30T14:42:41.197Z,40.40
2022-10-30T14:45:24.672Z,41.00
2022-10-30T14:47:57.498Z,41.10
2022-10-30T14:50:27.315Z,41.30
2022-10-30T14:53:31.485Z,41.20
2022-10-30T14:56:07.628Z,41.20
2022-10-30T14:58:36.936Z,40.60
2022-10-30T15:01:03.717Z,40.60
2022-10-30T15:03:37.843Z,40.60
2022-10-30T15:06:24.752Z,40.60
2022-10-30T15:09:23.977Z,40.60
2022-10-30T15:12:02.433Z,40.50
2022-10-30T15:17:24.581Z,40.20
2022-10-30T15:19:51.374Z,39.90
2022-10-30T15:22:21.388Z,39.60
2022-10-30T15:24:50.765Z,39.30
2022-10-30T15:27:23.695Z,38.70
2022-10-30T15:29:56.831Z,38.70
2022-10-30T15:32:25.061Z,38.70
2022-10-30T15:35:01.877Z,38.90
2022-10-30T15:37:29.135Z,39.20
2022-10-30T15:40:16.924Z,39.10
2022-10-30T15:42:44.126Z,39.50
2022-10-30T15:45:20.237Z,40.00
2022-10-30T15:47:59.621Z,41.80
2022-10-30T15:50:26.664Z,43.00
2022-10-30T15:52:54.032Z,43.90
2022-10-30T15:55:27.973Z,44.30
2022-10-30T15:58:03.861Z,44.30
2022-10-30T16:00:37.071Z,44.70
2022-10-30T16:03:12.759Z,44.70
2022-10-30T16:05:39.719Z,45.10
2022-10-30T16:08:24.241Z,45.90
2022-10-30T16:10:54.953Z,46.30
2022-10-30T16:13:31.813Z,46.80
2022-10-30T16:16:00.407Z,48.10
2022-10-30T16:18:30.473Z,47.40
2022-10-30T16:21:05.141Z,47.90
2022-10-30T16:23:57.573Z,48.90
2022-10-30T16:26:36.747Z,49.80
2022-10-30T16:29:26.165Z,51.20
2022-10-30T16:31:53.674Z,51.80
2022-10-30T16:34:31.146Z,52.40
2022-10-30T16:36:59.111Z,53.10
2022-10-30T16:39:27.661Z,54.40
2022-10-30T16:41:58.410Z,55.10
2022-10-30T16:44:43.410Z,55.40
2022-10-30T16:47:23.923Z,54.80
2022-10-30T16:49:56.705Z,57.00
2022-10-30T16:52:29.694Z,58.10
2022-10-30T16:55:05.809Z,59.40
2022-10-30T16:57:43.629Z,59.90
2022-10-30T17:00:36.948Z,60.40
2022-10-30T17:03:10.339Z,60.20
2022-10-30T17:05:38.282Z,60.60
2022-10-30T17:08:30.738Z,61.40
2022-10-30T17:11:03.147Z,61.20
2022-10-30T17:13:34.273Z,61.30
2022-10-30T17:16:20.328Z,61.40
2022-10-30T17:18:52.674Z,61.80
2022-10-30T17:21:39.607Z,62.60
2022-10-30T17:24:19.164Z,62.70
2022-10-30T17:26:55.681Z,63.80
2022-10-30T17:29:37.734Z,65.30
2022-10-30T17:32:06.023Z,66.30
2022-10-30T17:34:38.726Z,67.30
2022-10-30T17:37:05.543Z,68.40
2022-10-30T17:39:32.347Z,68.90
2022-10-30T17:41:59.159Z,68.50
2022-10-30T17:44:26.618Z,68.30
2022-10-30T17:46:54.589Z,68.00
2022-10-30T17:49:29.920Z,68.20
2022-10-30T17:51:57.048Z,68.80
2022-10-30T17:54:24.144Z,69.60
2022-10-30T17:56:51.551Z,70.70
2022-10-30T17:59:18.408Z,71.30
2022-10-30T18:01:45.233Z,71.30
2022-10-30T18:04:20.935Z,71.30
2022-10-30T18:06:48.605Z,71.40
2022-10-30T18:09:15.712Z,71.40
2022-10-30T18:11:42.519Z,72.50
2022-10-30T18:14:11.125Z,73.90
2022-10-30T18:16:38.315Z,74.20
2022-10-30T18:19:08.924Z,74.80
2022-10-30T18:21:35.737Z,75.60
2022-10-30T18:24:02.562Z,76.10
2022-10-30T18:26:30.255Z,76.20
2022-10-30T18:28:57.004Z,75.90
2022-10-30T18:31:26.216Z,76.30
2022-10-30T18:33:53.093Z,77.10
2022-10-30T18:36:24.515Z,77.30
2022-10-30T18:38:54.743Z,78.30
2022-10-30T18:41:37.191Z,78.40
2022-10-30T18:44:04.952Z,79.10
2022-10-30T18:46:33.727Z,79.50
2022-10-30T18:49:00.472Z,80.50
2022-10-30T18:51:28.393Z,82.00
2022-10-30T18:53:57.157Z,82.00
2022-10-30T18:56:26.911Z,82.20
2022-10-30T18:58:58.688Z,83.10
2022-10-30T19:01:32.135Z,83.00
2022-10-30T19:04:03.765Z,83.70
2022-10-30T19:06:32.929Z,83.80
2022-10-30T19:08:59.732Z,83.90
2022-10-30T19:11:28.237Z,85.20
2022-10-30T19:13:57.193Z,84.70
2022-10-30T19:16:26.885Z,85.60
2022-10-30T19:18:53.887Z,85.40
2022-10-30T19:21:25.831Z,85.70
2022-10-30T19:23:54.213Z,85.70
2022-10-30T19:26:21.078Z,86.00
2022-10-30T19:28:47.919Z,86.30
2022-10-30T19:31:16.893Z,86.10
2022-10-30T19:33:44.366Z,85.70
2022-10-30T19:36:25.779Z,85.10
2022-10-30T19:38:52.935Z,84.70
2022-10-30T19:41:19.879Z,84.00
2022-10-30T19:43:46.719Z,85.20
2022-10-30T19:46:14.733Z,84.80
2022-10-30T19:48:58.747Z,85.50
2022-10-30T19:51:31.955Z,86.10
2022-10-30T19:53:58.679Z,86.60
2022-10-30T19:56:25.366Z,86.90
2022-10-30T19:58:52.061Z,86.90
2022-10-30T20:01:18.930Z,86.80
2022-10-30T20:03:45.810Z,86.10
2022-10-30T20:06:15.355Z,85.40
2022-10-30T20:08:42.640Z,85.30
2022-10-30T20:11:09.342Z,85.10
2022-10-30T20:13:37.295Z,84.60
2022-10-30T20:16:05.418Z,85.40
2022-10-30T20:18:34.600Z,85.50
2022-10-30T20:21:05.220Z,85.90
2022-10-30T20:23:31.950Z,85.90
2022-10-30T20:26:01.518Z,85.80
2022-10-30T20:28:35.386Z,86.10
2022-10-30T20:31:02.382Z,87.00
2022-10-30T20:33:29.504Z,87.20
2022-10-30T20:35:56.717Z,87.40
2022-10-30T20:38:32.968Z,86.80
2022-10-30T20:41:02.651Z,86.80
2022-10-30T20:43:37.769Z,86.30
2022-10-30T20:46:06.614Z,86.30
2022-10-30T20:48:33.382Z,86.40
2022-10-30T20:51:01.576Z,85.80
2022-10-30T20:53:29.051Z,85.30
2022-10-30T20:55:56.017Z,84.70
2022-10-30T20:58:22.824Z,85.00
2022-10-30T21:00:49.887Z,85.10
2022-10-30T21:03:16.950Z,85.40
2022-10-30T21:05:46.066Z,85.70
2022-10-30T21:08:16.168Z,85.20
2022-10-30T21:10:43.000Z,84.90
2022-10-30T21:13:11.202Z,85.10
2022-10-30T21:15:43.139Z,85.30
2022-10-30T21:18:11.690Z,85.30
2022-10-30T21:20:39.242Z,85.00
2022-10-30T21:23:06.566Z,85.30
2022-10-30T21:25:33.619Z,85.10
2022-10-30T21:28:00.793Z,85.00
2022-10-30T21:30:27.953Z,86.80
2022-10-30T21:32:54.726Z,87.60
2022-10-30T21:35:21.528Z,87.50
2022-10-30T21:37:48.336Z,87.30
2022-10-30T21:40:15.183Z,87.10
2022-10-30T21:42:41.947Z,88.10
2022-10-30T21:45:09.988Z,88.80
2022-10-30T21:47:36.731Z,90.10
2022-10-30T21:50:07.625Z,90.00
2022-10-30T21:52:36.166Z,88.60
2022-10-30T21:55:03.198Z,87.70
2022-10-30T21:57:30.075Z,88.10
2022-10-30T21:59:58.908Z,88.20
2022-10-30T22:02:28.617Z,87.80
2022-10-30T22:04:55.758Z,88.80
2022-10-30T22:07:22.538Z,89.10
2022-10-30T22:09:49.333Z,89.00
2022-10-30T22:12:16.039Z,88.10
2022-10-30T22:14:42.817Z,88.00
2022-10-30T22:17:09.544Z,87.40
2022-10-30T22:19:37.158Z,86.90
2022-10-30T22:22:04.036Z,87.80
2022-10-30T22:24:30.865Z,88.90
2022-10-30T22:26:57.588Z,89.20
2022-10-30T22:29:24.324Z,89.20
2022-10-30T22:31:51.426Z,89.00
2022-10-30T22:34:18.163Z,89.40
2022-10-30T22:36:44.964Z,89.30
2022-10-30T22:39:13.286Z,89.00
2022-10-30T22:41:40.252Z,89.20
2022-10-30T22:44:11.575Z,88.50
2022-10-30T22:46:38.597Z,88.30
2022-10-30T22:49:06.356Z,88.60
2022-10-30T22:51:35.445Z,88.50
2022-10-30T22:54:04.589Z,88.10
2022-10-30T22:56:33.629Z,87.80
2022-10-30T22:59:02.166Z,88.20
2022-10-30T23:01:31.573Z,87.80
2022-10-30T23:04:00.851Z,88.30
2022-10-30T23:06:29.455Z,88.70
2022-10-30T23:08:57.954Z,88.80
2022-10-30T23:11:25.797Z,89.00
2022-10-30T23:13:52.553Z,89.50
2022-10-30T23:16:22.346Z,88.70
2022-10-30T23:18:50.197Z,88.30
2022-10-30T23:21:20.820Z,88.70
2022-10-30T23:23:48.348Z,88.70
2022-10-30T23:26:21.350Z,87.50
2022-10-30T23:28:50.236Z,88.00
2022-10-30T23:31:28.238Z,88.10
2022-10-30T23:33:57.792Z,88.00
2022-10-30T23:36:25.198Z,88.20
2022-10-30T23:38:58.011Z,88.50
2022-10-30T23:41:28.117Z,88.50
2022-10-30T23:43:56.643Z,88.60
2022-10-30T23:46:23.433Z,88.40
2022-10-30T23:48:50.568Z,88.80
2022-10-30T23:51:19.814Z,88.70
2022-10-30T23:53:46.648Z,88.60
2022-10-30T23:56:13.791Z,89.40
2022-10-30T23:58:44.373Z,89.80
